Current Conditions
Lichte Regen
Bui



Rainfall
0.00 (mm) - 0.00 (in)
Pressure
1016.93 (hPa) - 30.03 (inHG)
Visibility

9.7 (km) - 6.0 (miles)
   Temperature
14  °C
57°F
14  °C
Dewpoint
100  %
 Humidity
   Wind Speed
3  km/h
2  kts
2  mph
0.9  m/s
   Wind Direction
Calm
Due North
   Airport Data
EHLE
Location Lelystad Airport 20 km (12.43 mi)
Metar :EHLE 242155Z AUTO VRB02KT 9999 -SHRA FEW015CB 14/14 Q1017 REDZ
Fri 24th May 23:55 pm
   Raw Metar Info
Raw METAR is the most common format in the world for the transmission of observational weather data. It is highly standardized through the International Civil Aviation Organization (ICAO), which allows it to be understood throughout most of the world.
   API Info
Data Provided by
https://www.checkwx.com/weather/EHLE
   © Info
CSS/SVG/PHP scripts were developed by weather34.com for use in the weather34 template © 2015-2024

Guide Info provided by Metar-Wikipedia